Time;durP1;ratioP1;P1;durP2;ratioP2;P2;SDS_P1;SDS_P2;PMS_P1;PMS_P2;Temp;Humidity;BMP_temperature;BMP_pressure;BME280_temperature;BME280_humidity;BME280_pressure;Samples;Min_cycle;Max_cycle;Signal;HPM_P1;HPM_P2
2023/12/16 00:01:09;;;;;;;28.63;26.63;;;;;;;2.75;100.00;102586.13;5085468;28;20044;-74
2023/12/16 00:03:36;;;;;;;32.30;30.00;;;;;;;3.11;100.00;102584.41;5086790;28;20526;-74
2023/12/16 00:06:03;;;;;;;31.88;29.77;;;;;;;2.91;100.00;102585.03;5087094;28;20044;-74
2023/12/16 00:08:30;;;;;;;31.08;28.98;;;;;;;2.78;100.00;102600.78;5090389;28;20054;-74
2023/12/16 00:10:58;;;;;;;29.52;27.52;;;;;;;2.88;100.00;102614.94;5084848;28;20075;-74
2023/12/16 00:13:27;;;;;;;29.95;27.85;;;;;;;2.82;100.00;102611.94;5091755;28;20488;-74
2023/12/16 00:15:53;;;;;;;28.90;26.90;;;;;;;2.90;100.00;102605.16;5082660;28;20048;-74
2023/12/16 00:18:20;;;;;;;30.05;28.05;;;;;;;2.81;100.00;102610.22;5088838;28;20468;-74
2023/12/16 00:20:55;;;;;;;29.48;27.48;;;;;;;2.88;100.00;102622.81;5085477;28;20091;-74
2023/12/16 00:23:22;;;;;;;29.20;27.20;;;;;;;2.90;100.00;102625.31;5089041;28;20074;-74
2023/12/16 00:25:58;;;;;;;32.70;30.50;;;;;;;2.74;100.00;102623.78;5088376;28;20488;-74
2023/12/16 00:28:32;;;;;;;31.83;29.63;;;;;;;2.74;100.00;102631.66;5089173;28;20048;-74
2023/12/16 00:30:59;;;;;;;29.67;27.58;;;;;;;2.73;100.00;102640.50;5085910;28;20093;-74
2023/12/16 00:33:57;;;;;;;30.45;28.33;;;;;;;2.79;100.00;102641.03;5089953;28;20522;-74
2023/12/16 00:36:24;;;;;;;34.00;31.60;;;;;;;2.81;100.00;102647.81;5008297;28;20124;-74
2023/12/16 00:39:00;;;;;;;29.95;27.85;;;;;;;2.82;100.00;102649.50;5068025;28;20048;-74
2023/12/16 00:41:29;;;;;;;29.75;27.65;;;;;;;2.74;100.00;102650.03;5094259;28;20048;-74
2023/12/16 00:44:00;;;;;;;29.98;27.88;;;;;;;2.94;100.00;102642.56;5088025;28;20054;-74
2023/12/16 00:46:29;;;;;;;31.30;29.10;;;;;;;2.75;100.00;102648.25;5080572;28;20065;-74
2023/12/16 00:48:56;;;;;;;31.35;29.05;;;;;;;2.73;100.00;102651.00;5081123;28;20058;-74
2023/12/16 00:51:23;;;;;;;31.80;29.60;;;;;;;2.71;100.00;102655.50;5090427;28;20534;-74
2023/12/16 00:53:53;;;;;;;31.50;29.30;;;;;;;2.77;100.00;102656.84;5089406;28;21430;-74
2023/12/16 00:56:20;;;;;;;32.10;29.80;;;;;;;2.63;100.00;102652.59;5085081;28;20047;-73
2023/12/16 00:58:50;;;;;;;29.70;27.63;;;;;;;2.70;100.00;102668.75;5086010;28;20058;-74
2023/12/16 01:01:26;;;;;;;34.50;32.30;;;;;;;2.79;100.00;102664.63;5081758;28;20042;-74
2023/12/16 01:03:55;;;;;;;33.33;31.02;;;;;;;2.80;100.00;102661.88;5086419;28;20044;-75
2023/12/16 01:06:22;;;;;;;30.00;27.90;;;;;;;2.66;100.00;102651.50;5086414;28;20434;-74
2023/12/16 01:08:49;;;;;;;28.67;26.67;;;;;;;2.77;100.00;102656.03;5081664;28;20118;-74
2023/12/16 01:11:17;;;;;;;30.48;28.38;;;;;;;2.81;100.00;102670.59;5088064;28;20046;-74
2023/12/16 01:13:44;;;;;;;33.60;31.20;;;;;;;3.47;100.00;102664.09;5088596;28;20044;-74
2023/12/16 01:16:16;;;;;;;31.20;29.00;;;;;;;2.82;100.00;102673.13;5089135;28;20079;-74
2023/12/16 01:18:44;;;;;;;32.60;30.30;;;;;;;3.42;100.00;102667.09;5086798;28;20055;-74
2023/12/16 01:21:11;;;;;;;38.28;35.58;;;;;;;3.55;100.00;102653.88;5085615;28;20052;-74
2023/12/16 01:23:38;;;;;;;31.50;29.40;;;;;;;2.97;100.00;102661.56;5080428;28;20056;-74
2023/12/16 01:26:05;;;;;;;31.25;29.02;;;;;;;3.53;100.00;102665.44;5087401;28;20052;-74
2023/12/16 01:28:32;;;;;;;30.92;28.42;;;;;;;3.96;100.00;102647.31;5089315;28;20040;-78
2023/12/16 01:32:18;;;;;;;32.38;30.08;;;;;;;2.98;100.00;102654.50;5088424;28;20059;-74
2023/12/16 01:34:47;;;;;;;30.45;28.35;;;;;;;2.68;100.00;102649.63;5082721;28;20055;-74
2023/12/16 01:37:31;;;;;;;29.35;27.30;;;;;;;2.78;100.00;102645.41;5085385;28;20048;-79
2023/12/16 01:41:02;;;;;;;33.30;30.90;;;;;;;3.34;100.00;102658.06;5080227;28;20044;-73
2023/12/16 01:43:28;;;;;;;32.25;29.95;;;;;;;2.98;100.00;102650.09;5085001;28;20075;-78
2023/12/16 01:49:13;;;;;;;31.20;29.05;;;;;;;2.81;100.00;102673.22;5083804;28;20056;-73
2023/12/16 01:51:46;;;;;;;32.33;29.98;;;;;;;3.36;100.00;102664.03;5090098;28;20044;-74
2023/12/16 01:54:13;;;;;;;31.30;29.10;;;;;;;3.03;100.00;102677.81;5089157;28;20051;-75
2023/12/16 01:56:56;;;;;;;30.20;28.00;;;;;;;2.95;100.00;102667.84;5088767;28;20528;-75
2023/12/16 01:59:27;;;;;;;33.17;30.77;;;;;;;3.19;100.00;102683.66;5090432;28;20048;-74
2023/12/16 02:01:55;;;;;;;30.48;28.27;;;;;;;2.97;100.00;102681.72;5084313;28;20043;-75
2023/12/16 02:04:32;;;;;;;30.30;28.20;;;;;;;2.88;100.00;102680.56;5086332;28;20448;-78
2023/12/16 02:07:03;;;;;;;33.20;30.90;;;;;;;2.94;100.00;102682.78;5089163;28;20423;-78
2023/12/16 02:09:30;;;;;;;32.88;30.35;;;;;;;3.29;100.00;102681.19;5086196;28;20058;-78
2023/12/16 02:11:57;;;;;;;32.05;29.85;;;;;;;2.75;100.00;102691.09;5088604;28;20040;-79
2023/12/16 02:14:24;;;;;;;32.00;29.70;;;;;;;2.70;100.00;102687.09;5084122;28;20520;-78
2023/12/16 02:16:51;;;;;;;32.17;29.77;;;;;;;2.77;100.00;102692.75;5087776;28;20063;-78
2023/12/16 02:19:25;;;;;;;30.95;28.75;;;;;;;2.86;100.00;102697.38;5087536;28;20248;-78
2023/12/16 02:22:31;;;;;;;30.40;28.20;;;;;;;2.97;100.00;102702.72;5091457;28;20074;-74
2023/12/16 02:25:21;;;;;;;32.90;30.60;;;;;;;2.82;100.00;102694.13;5087144;28;20447;-74
2023/12/16 02:27:48;;;;;;;35.10;32.80;;;;;;;2.84;100.00;102707.13;5087788;28;20060;-74
2023/12/16 02:30:15;;;;;;;29.38;27.27;;;;;;;2.68;100.00;102699.47;5086729;28;20052;-74
2023/12/16 02:32:43;;;;;;;31.10;28.80;;;;;;;3.33;100.00;102712.41;5085611;28;20136;-74
2023/12/16 02:35:15;;;;;;;32.90;30.60;;;;;;;3.05;100.00;102716.13;5079061;28;20052;-74
2023/12/16 02:37:51;;;;;;;34.00;31.50;;;;;;;2.89;100.00;102723.41;5085839;28;20051;-74
2023/12/16 02:40:19;;;;;;;30.67;28.48;;;;;;;2.91;100.00;102724.16;5088258;28;20455;-74
2023/12/16 02:42:54;;;;;;;31.73;29.42;;;;;;;2.74;100.00;102713.00;5086300;28;20050;-73
2023/12/16 02:45:21;;;;;;;34.08;31.30;;;;;;;2.94;100.00;102722.16;5085405;28;21643;-74
2023/12/16 02:47:48;;;;;;;32.50;30.10;;;;;;;2.72;100.00;102721.94;5083379;28;20044;-74
2023/12/16 02:50:15;;;;;;;30.80;28.50;;;;;;;2.67;100.00;102727.50;5085507;28;20048;-74
2023/12/16 02:52:42;;;;;;;31.52;29.02;;;;;;;2.60;100.00;102717.53;5090128;28;20044;-74
2023/12/16 02:55:09;;;;;;;33.97;31.38;;;;;;;2.61;100.00;102725.31;5086349;28;20059;-74
2023/12/16 02:57:37;;;;;;;31.73;29.42;;;;;;;2.71;100.00;102728.97;5086100;28;20059;-74
2023/12/16 03:00:10;;;;;;;30.02;27.83;;;;;;;2.86;100.00;102739.38;5091699;28;20074;-74
2023/12/16 03:02:37;;;;;;;30.38;28.13;;;;;;;2.79;100.00;102733.72;5082601;28;20511;-74
2023/12/16 03:05:05;;;;;;;31.02;28.73;;;;;;;2.85;100.00;102741.16;5088220;28;20044;-74
2023/12/16 03:07:33;;;;;;;31.80;29.40;;;;;;;2.58;100.00;102741.25;5079697;28;20055;-74
2023/12/16 03:10:01;;;;;;;34.65;31.77;;;;;;;2.63;100.00;102752.28;5083779;28;20048;-74
2023/12/16 03:12:29;;;;;;;35.83;33.08;;;;;;;2.69;100.00;102758.88;5086118;28;20050;-74
2023/12/16 03:15:00;;;;;;;34.80;31.98;;;;;;;2.72;100.00;102762.16;5085019;28;20047;-74
2023/12/16 03:17:29;;;;;;;35.75;32.95;;;;;;;2.83;100.00;102765.81;5092011;28;20527;-74
2023/12/16 03:20:00;;;;;;;36.45;33.55;;;;;;;2.79;100.00;102767.81;5087190;28;20071;-74
2023/12/16 03:22:27;;;;;;;34.72;32.03;;;;;;;2.68;100.00;102767.72;5089480;28;20036;-74
2023/12/16 03:24:55;;;;;;;41.53;38.42;;;;;;;2.80;100.00;102773.91;5091983;28;20040;-74
2023/12/16 03:27:22;;;;;;;38.17;35.22;;;;;;;2.68;100.00;102768.53;5087681;28;20052;-73
2023/12/16 03:29:49;;;;;;;35.75;32.80;;;;;;;2.70;100.00;102768.44;5091459;28;20052;-74
2023/12/16 03:32:20;;;;;;;38.45;35.45;;;;;;;2.84;100.00;102767.50;5089893;28;20046;-74
2023/12/16 03:34:53;;;;;;;39.45;36.15;;;;;;;3.20;100.00;102778.06;5089378;28;20055;-74
2023/12/16 03:37:20;;;;;;;33.60;30.90;;;;;;;3.05;100.00;102787.00;5089762;28;20048;-74
2023/12/16 03:39:53;;;;;;;31.45;29.05;;;;;;;2.85;100.00;102780.53;5091028;28;20430;-74
2023/12/16 03:42:22;;;;;;;32.10;29.50;;;;;;;3.02;100.00;102783.75;5090912;28;20127;-74
2023/12/16 03:44:49;;;;;;;34.28;31.60;;;;;;;2.97;100.00;102776.22;5089460;28;20071;-74
2023/12/16 03:47:16;;;;;;;33.97;31.27;;;;;;;2.86;100.00;102781.38;5086285;28;20045;-74
2023/12/16 03:49:44;;;;;;;34.92;32.33;;;;;;;2.90;100.00;102786.28;5087624;28;20054;-74
2023/12/16 03:52:12;;;;;;;31.00;28.80;;;;;;;2.80;100.00;102773.91;5086620;28;20054;-74
2023/12/16 03:54:39;;;;;;;33.83;31.33;;;;;;;2.71;100.00;102773.59;5086972;28;20047;-74
2023/12/16 03:57:06;;;;;;;32.97;30.38;;;;;;;2.71;100.00;102778.00;5086641;28;20055;-74
2023/12/16 03:59:33;;;;;;;31.67;28.98;;;;;;;2.70;100.00;102792.06;5083001;28;20056;-74
2023/12/16 04:02:00;;;;;;;29.45;26.65;;;;;;;2.60;100.00;102781.31;5084615;28;20048;-75
2023/12/16 04:04:29;;;;;;;26.63;24.52;;;;;;;2.70;100.00;102794.69;5087389;28;20066;-74
2023/12/16 04:07:01;;;;;;;28.98;26.52;;;;;;;2.71;100.00;102804.22;5089113;28;20040;-74
2023/12/16 04:09:28;;;;;;;28.63;26.33;;;;;;;2.64;100.00;102803.81;5091565;28;20443;-74
2023/12/16 04:11:55;;;;;;;32.97;30.27;;;;;;;2.70;100.00;102810.44;5084659;28;20040;-74
2023/12/16 04:14:23;;;;;;;34.63;31.85;;;;;;;2.63;100.00;102804.78;5089316;28;20037;-74
2023/12/16 04:16:50;;;;;;;33.05;30.27;;;;;;;2.60;100.00;102819.84;5087892;28;20068;-74
2023/12/16 04:19:17;;;;;;;37.10;34.15;;;;;;;2.63;100.00;102820.50;5089907;28;20732;-74
2023/12/16 04:21:52;;;;;;;38.60;35.50;;;;;;;2.78;100.00;102818.63;5087280;28;20044;-74
2023/12/16 04:24:26;;;;;;;33.08;30.45;;;;;;;2.75;100.00;102819.69;5089393;28;21244;-74
2023/12/16 04:26:55;;;;;;;35.85;32.95;;;;;;;2.57;100.00;102823.50;5081882;28;20040;-74
2023/12/16 04:29:22;;;;;;;57.35;52.88;;;;;;;4.69;100.00;102816.38;5087430;28;20047;-75
2023/12/16 04:31:55;;;;;;;37.25;34.22;;;;;;;2.94;100.00;102828.94;5087520;28;20689;-75
2023/12/16 04:34:22;;;;;;;34.72;31.73;;;;;;;2.70;100.00;102828.81;5089659;28;20077;-74
2023/12/16 04:36:49;;;;;;;36.45;33.45;;;;;;;2.66;100.00;102827.31;5081537;28;20503;-74
2023/12/16 04:39:15;;;;;;;34.60;31.85;;;;;;;2.61;100.00;102819.75;5088793;28;20503;-74
2023/12/16 04:41:44;;;;;;;38.40;35.42;;;;;;;2.65;100.00;102828.25;5088697;28;20048;-74
2023/12/16 04:44:10;;;;;;;34.28;31.67;;;;;;;2.65;100.00;102836.97;5088955;28;20511;-74
2023/12/16 04:46:37;;;;;;;34.83;32.03;;;;;;;2.60;100.00;102830.34;5087253;28;20044;-74
2023/12/16 04:49:04;;;;;;;44.53;40.97;;;;;;;2.75;100.00;102818.81;5089177;28;20052;-74
2023/12/16 04:51:31;;;;;;;31.15;28.65;;;;;;;2.91;100.00;102847.53;5088491;28;20050;-74
2023/12/16 04:54:15;;;;;;;33.65;30.95;;;;;;;2.79;100.00;102851.81;5084869;28;20055;-74
2023/12/16 04:56:42;;;;;;;33.10;30.50;;;;;;;2.59;100.00;102847.03;5083123;28;20799;-74
2023/12/16 04:59:10;;;;;;;32.10;29.50;;;;;;;2.63;100.00;102844.13;5080832;28;20040;-74
2023/12/16 05:01:37;;;;;;;31.70;29.20;;;;;;;2.59;100.00;102860.16;5088615;28;20051;-74
2023/12/16 05:04:04;;;;;;;30.27;27.80;;;;;;;2.60;100.00;102851.34;5073089;28;20050;-74
2023/12/16 05:06:31;;;;;;;32.65;30.15;;;;;;;2.63;100.00;102862.50;5088149;28;20055;-74
2023/12/16 05:09:00;;;;;;;37.70;34.80;;;;;;;2.71;100.00;102870.69;5085620;28;20044;-74
2023/12/16 05:11:28;;;;;;;35.03;32.42;;;;;;;2.69;100.00;102869.97;5086858;28;20056;-74
2023/12/16 05:13:56;;;;;;;35.20;32.40;;;;;;;2.68;100.00;102865.63;5085184;28;20048;-74
2023/12/16 05:16:26;;;;;;;32.80;30.10;;;;;;;2.69;100.00;102866.47;5093646;28;20052;-74
2023/12/16 05:18:59;;;;;;;35.40;32.60;;;;;;;2.92;100.00;102872.81;5088821;28;20461;-74
2023/12/16 05:21:28;;;;;;;38.58;35.47;;;;;;;2.68;100.00;102886.63;5090722;28;20051;-74
2023/12/16 05:23:54;;;;;;;33.72;30.92;;;;;;;2.75;100.00;102887.06;5088816;28;20060;-74
2023/12/16 05:26:21;;;;;;;35.28;32.47;;;;;;;3.16;100.00;102896.56;5087026;28;20052;-74
2023/12/16 05:28:48;;;;;;;38.35;35.35;;;;;;;2.62;100.00;102892.28;5088390;28;20054;-74
2023/12/16 05:31:15;;;;;;;35.22;32.53;;;;;;;2.71;100.00;102885.59;5091855;28;20043;-74
2023/12/16 05:33:47;;;;;;;38.90;35.90;;;;;;;3.02;100.00;102894.03;5084958;28;20058;-74
2023/12/16 05:36:14;;;;;;;37.15;34.10;;;;;;;2.83;100.00;102894.44;5088855;28;20040;-74
2023/12/16 05:38:41;;;;;;;33.83;31.02;;;;;;;2.75;100.00;102898.41;5081040;28;20057;-74
2023/12/16 05:41:08;;;;;;;37.65;34.85;;;;;;;2.85;100.00;102906.53;5083862;28;20043;-74
2023/12/16 05:43:35;;;;;;;37.10;34.20;;;;;;;2.82;100.00;102911.13;5088067;28;20488;-74
2023/12/16 05:46:02;;;;;;;33.05;30.35;;;;;;;2.67;100.00;102921.69;5087869;28;20900;-74
2023/12/16 05:48:31;;;;;;;29.60;27.27;;;;;;;2.77;100.00;102916.66;5087481;28;20074;-74
2023/12/16 05:51:00;;;;;;;32.63;30.13;;;;;;;2.89;100.00;102913.22;5088628;28;20423;-75
2023/12/16 05:53:27;;;;;;;30.15;27.75;;;;;;;2.70;100.00;102916.25;5089202;28;20443;-74
2023/12/16 05:55:54;;;;;;;31.27;28.88;;;;;;;3.10;100.00;102920.63;5088372;28;20052;-74
2023/12/16 05:58:21;;;;;;;30.80;28.50;;;;;;;2.65;100.00;102922.72;5088518;28;20413;-74
2023/12/16 06:00:48;;;;;;;29.10;26.85;;;;;;;2.69;100.00;102926.81;5083930;28;20097;-79
2023/12/16 06:03:14;;;;;;;31.63;29.33;;;;;;;2.66;100.00;102927.03;5082814;28;20047;-78
2023/12/16 06:05:41;;;;;;;33.42;30.75;;;;;;;2.69;100.00;102930.31;5088441;28;20044;-79
2023/12/16 06:08:10;;;;;;;36.47;33.80;;;;;;;3.49;100.00;102937.25;5087522;28;20066;-79
2023/12/16 06:10:36;;;;;;;32.85;30.35;;;;;;;3.01;100.00;102939.63;5085242;28;20054;-79
2023/12/16 06:13:06;;;;;;;31.65;29.33;;;;;;;3.72;100.00;102935.66;5089227;28;20044;-79
2023/12/16 06:15:36;;;;;;;34.38;31.88;;;;;;;3.16;100.00;102933.34;5088720;28;20044;-79
2023/12/16 06:18:04;;;;;;;35.78;33.17;;;;;;;3.64;100.00;102926.53;5085584;28;20054;-79
2023/12/16 06:20:31;;;;;;;30.65;28.38;;;;;;;3.20;100.00;102927.75;5088698;28;20080;-79
2023/12/16 06:23:04;;;;;;;31.77;28.98;;;;;;;3.19;100.00;102933.97;5089909;28;20059;-79
2023/12/16 06:25:32;;;;;;;34.88;32.47;;;;;;;3.77;100.00;102950.16;5089709;28;20079;-79
2023/12/16 06:27:59;;;;;;;37.45;34.72;;;;;;;3.80;100.00;102965.72;5085918;28;20048;-79
2023/12/16 06:30:26;;;;;;;27.90;25.90;;;;;;;3.00;100.00;102970.28;5083662;28;20653;-78
2023/12/16 06:32:59;;;;;;;28.25;26.15;;;;;;;3.58;100.00;102969.00;5089038;28;20472;-79
2023/12/16 06:35:28;;;;;;;29.15;26.70;;;;;;;3.16;100.00;102989.31;5091768;28;20040;-79
2023/12/16 06:37:55;;;;;;;29.33;27.23;;;;;;;3.93;100.00;102999.88;5085210;28;20048;-80
2023/12/16 06:40:22;;;;;;;30.38;28.23;;;;;;;3.63;100.00;103008.94;5088608;28;20066;-79
2023/12/16 06:42:50;;;;;;;27.73;25.63;;;;;;;2.97;100.00;103013.34;5086194;28;20423;-79
2023/12/16 06:45:18;;;;;;;33.90;31.40;;;;;;;3.76;100.00;103011.56;5090059;28;20067;-79
2023/12/16 06:47:45;;;;;;;36.05;33.25;;;;;;;3.93;100.00;103025.34;5087495;28;20051;-79
2023/12/16 06:50:12;;;;;;;28.17;26.27;;;;;;;3.00;100.00;103028.06;5086363;28;20051;-79
2023/12/16 06:52:39;;;;;;;26.73;24.92;;;;;;;2.82;100.00;103024.00;5096751;28;20051;-78
2023/12/16 06:55:06;;;;;;;30.05;27.95;;;;;;;4.05;100.00;103040.25;5097826;28;20071;-79
2023/12/16 06:57:35;;;;;;;37.55;34.70;;;;;;;3.79;100.00;103037.66;5091202;28;20058;-79
2023/12/16 07:00:06;;;;;;;30.30;27.90;;;;;;;4.02;100.00;103037.84;5089620;28;20127;-79
2023/12/16 07:02:33;;;;;;;25.50;23.80;;;;;;;2.75;100.00;103037.50;5089225;28;20051;-79
2023/12/16 07:05:00;;;;;;;26.33;24.52;;;;;;;2.78;100.00;103048.72;5085311;28;20048;-79
2023/12/16 07:07:28;;;;;;;26.58;24.67;;;;;;;2.94;100.00;103052.09;5090886;28;20044;-79
2023/12/16 07:09:55;;;;;;;27.73;25.73;;;;;;;3.24;100.00;103049.25;5089220;28;20048;-79
2023/12/16 07:12:34;;;;;;;28.73;26.52;;;;;;;3.06;100.00;103048.66;5091110;28;20431;-74
2023/12/16 07:15:06;;;;;;;24.27;22.38;;;;;;;2.63;100.00;103050.56;5092097;28;20455;-74
2023/12/16 07:17:33;;;;;;;30.35;28.05;;;;;;;3.87;100.00;103051.13;5091834;28;20538;-74
2023/12/16 07:20:00;;;;;;;28.60;26.50;;;;;;;3.27;100.00;103050.81;5089428;28;20081;-74
2023/12/16 07:22:29;;;;;;;32.38;30.08;;;;;;;4.05;100.00;103050.78;5087554;28;20123;-74
2023/12/16 07:24:59;;;;;;;38.00;35.15;;;;;;;4.98;100.00;103054.66;5092618;28;20040;-74
2023/12/16 07:27:26;;;;;;;24.05;22.35;;;;;;;3.16;100.00;103046.28;5084013;28;20547;-74
2023/12/16 07:29:53;;;;;;;24.30;22.60;;;;;;;3.50;100.00;103051.91;5090965;28;20062;-75
2023/12/16 07:32:41;;;;;;;26.00;24.20;;;;;;;3.98;100.00;103049.53;5086996;28;20568;-75
2023/12/16 07:35:12;;;;;;;25.00;23.30;;;;;;;3.18;100.00;103053.09;5071379;28;20517;-74
2023/12/16 07:37:40;;;;;;;28.00;26.10;;;;;;;4.00;100.00;103063.44;5088641;28;20048;-75
2023/12/16 07:40:08;;;;;;;33.10;30.70;;;;;;;4.47;100.00;103060.09;5099442;28;20507;-74
2023/12/16 07:42:36;;;;;;;23.90;22.30;;;;;;;3.38;100.00;103056.19;5092642;28;20051;-74
2023/12/16 07:45:04;;;;;;;23.27;21.77;;;;;;;3.56;100.00;103064.66;5087698;28;20078;-74
2023/12/16 07:47:31;;;;;;;23.65;22.15;;;;;;;3.04;100.00;103066.28;5087176;28;20105;-74
2023/12/16 07:49:59;;;;;;;24.60;23.00;;;;;;;3.68;100.00;103053.31;5090873;28;20507;-74
2023/12/16 07:52:30;;;;;;;24.73;23.08;;;;;;;3.48;100.00;103059.91;5092182;28;20437;-77
2023/12/16 07:55:00;;;;;;;27.50;25.52;;;;;;;4.00;100.00;103066.91;5101698;28;20048;-74
2023/12/16 07:57:27;;;;;;;21.88;20.48;;;;;;;2.95;100.00;103070.34;5097363;28;20048;-74
2023/12/16 07:59:54;;;;;;;22.20;20.90;;;;;;;3.42;100.00;103074.31;5091149;28;20400;-74
2023/12/16 08:02:21;;;;;;;25.60;24.20;;;;;;;3.15;100.00;103084.00;5086984;28;20429;-74
2023/12/16 08:04:48;;;;;;;26.20;24.70;;;;;;;3.22;100.00;103072.13;5084241;28;20036;-74
2023/12/16 08:07:16;;;;;;;26.65;24.98;;;;;;;3.44;100.00;103080.28;5086511;28;20047;-74
2023/12/16 08:09:43;;;;;;;37.15;34.85;;;;;;;3.64;100.00;103078.13;5086774;28;20052;-74
2023/12/16 08:12:10;;;;;;;36.28;34.00;;;;;;;3.49;100.00;103079.97;5095306;28;20688;-74
2023/12/16 08:14:40;;;;;;;36.95;34.67;;;;;;;3.10;100.00;103086.06;5086273;28;20040;-74
2023/12/16 08:17:15;;;;;;;37.33;34.67;;;;;;;3.49;100.00;103081.78;5087820;28;20056;-74
2023/12/16 08:19:43;;;;;;;35.63;33.42;;;;;;;3.56;100.00;103093.56;5088958;28;20298;-75
2023/12/16 08:22:09;;;;;;;37.35;35.05;;;;;;;3.66;100.00;103086.72;5087363;28;20080;-79
2023/12/16 08:24:38;;;;;;;36.58;34.28;;;;;;;3.95;100.00;103102.34;5087947;28;20055;-79
2023/12/16 08:27:05;;;;;;;35.15;32.95;;;;;;;4.92;100.00;103099.88;5087583;28;20079;-78
2023/12/16 08:29:32;;;;;;;35.50;33.10;;;;;;;3.93;100.00;103098.97;5087004;28;20048;-79
2023/12/16 08:36:03;;;;;;;34.25;32.15;;;;;;;3.92;100.00;103100.75;5029322;28;20052;-74
2023/12/16 08:38:32;;;;;;;34.60;32.45;;;;;;;4.09;100.00;103095.19;5068791;28;20048;-74
2023/12/16 08:41:00;;;;;;;35.17;32.95;;;;;;;4.34;100.00;103096.13;5087579;28;20063;-74
2023/12/16 08:43:30;;;;;;;34.00;31.80;;;;;;;4.32;100.00;103090.94;5084746;28;20059;-74
2023/12/16 08:45:57;;;;;;;31.02;29.13;;;;;;;4.07;100.00;103086.56;5098979;28;20040;-74
2023/12/16 08:48:26;;;;;;;33.15;31.00;;;;;;;3.81;100.00;103090.13;5090425;28;20040;-74
2023/12/16 08:50:53;;;;;;;34.00;31.98;;;;;;;3.86;100.00;103094.13;5088714;28;20627;-74
2023/12/16 08:53:26;;;;;;;31.48;29.55;;;;;;;4.51;100.00;103093.16;5099435;28;20439;-78
2023/12/16 08:56:04;;;;;;;33.17;31.08;;;;;;;4.36;100.00;103087.19;5088123;28;20059;-74
2023/12/16 08:58:31;;;;;;;27.83;26.15;;;;;;;5.27;100.00;103101.75;5085288;28;20050;-79
2023/12/16 09:00:58;;;;;;;30.40;28.50;;;;;;;4.73;100.00;103102.16;5092935;28;20052;-79
2023/12/16 09:03:36;;;;;;;27.95;26.15;;;;;;;4.81;100.00;103092.78;5089598;28;20253;-74
2023/12/16 09:06:11;;;;;;;26.08;24.38;;;;;;;4.38;100.00;103087.06;5089263;28;20435;-78
2023/12/16 09:08:49;;;;;;;26.77;25.00;;;;;;;4.18;100.00;103087.63;5082222;28;20463;-74
2023/12/16 09:11:19;;;;;;;26.63;24.92;;;;;;;5.09;100.00;103097.84;5084432;28;20052;-79
2023/12/16 09:13:55;;;;;;;25.63;23.85;;;;;;;3.40;100.00;103083.22;5085161;28;20534;-74
2023/12/16 09:16:22;;;;;;;27.35;25.55;;;;;;;3.21;100.00;103087.06;5081757;28;20047;-74
2023/12/16 09:18:49;;;;;;;25.67;24.17;;;;;;;3.39;100.00;103089.44;5088280;28;20051;-74
2023/12/16 09:21:16;;;;;;;30.48;28.02;;;;;;;3.55;100.00;103081.38;5086238;28;20052;-74
2023/12/16 09:23:50;;;;;;;28.92;27.33;;;;;;;3.46;100.00;103077.56;5080330;28;20114;-74
2023/12/16 09:26:17;;;;;;;28.05;26.45;;;;;;;4.09;100.00;103081.22;5080252;28;20066;-74
2023/12/16 09:28:45;;;;;;;25.98;24.10;;;;;;;3.84;100.00;103079.38;5089990;28;20044;-74
2023/12/16 09:31:27;;;;;;;26.95;25.38;;;;;;;3.75;100.00;103073.00;5088987;28;20059;-75
2023/12/16 09:33:54;;;;;;;25.50;24.10;;;;;;;4.08;100.00;103074.25;5088847;28;20595;-74
2023/12/16 09:36:26;;;;;;;27.90;26.30;;;;;;;3.64;100.00;103062.34;5092470;28;20051;-74
2023/12/16 09:38:53;;;;;;;27.42;25.73;;;;;;;3.39;100.00;103065.78;5082659;28;20529;-74
2023/12/16 09:41:22;;;;;;;28.25;26.60;;;;;;;3.92;100.00;103071.84;5090073;28;20062;-75
2023/12/16 09:43:53;;;;;;;22.30;20.90;;;;;;;4.16;100.00;103058.78;5083959;28;20097;-74
2023/12/16 09:46:21;;;;;;;21.58;20.27;;;;;;;3.49;100.00;103074.72;5081446;28;20105;-74
2023/12/16 09:48:48;;;;;;;21.98;20.67;;;;;;;3.25;100.00;103061.41;5081022;28;20067;-76
2023/12/16 09:51:15;;;;;;;20.80;19.13;;;;;;;3.67;100.00;103064.78;5083764;28;20044;-79
2023/12/16 09:53:42;;;;;;;20.17;18.88;;;;;;;3.63;100.00;103058.03;5085198;28;20052;-79
2023/12/16 09:56:16;;;;;;;24.02;22.63;;;;;;;4.24;100.00;103056.47;5080268;28;20044;-74
2023/12/16 09:58:43;;;;;;;21.70;20.35;;;;;;;4.05;100.00;103058.66;5082289;28;20711;-75
2023/12/16 10:01:12;;;;;;;20.42;19.13;;;;;;;3.86;100.00;103061.72;5083407;28;20480;-74
2023/12/16 10:03:40;;;;;;;19.80;18.50;;;;;;;4.11;100.00;103063.50;5084412;28;20432;-75
2023/12/16 10:06:09;;;;;;;19.67;18.38;;;;;;;3.74;100.00;103065.19;5087631;28;20428;-74
2023/12/16 10:08:38;;;;;;;21.08;19.67;;;;;;;3.81;100.00;103055.94;5085341;28;20045;-74
2023/12/16 10:11:06;;;;;;;20.58;19.17;;;;;;;3.61;100.00;103058.13;5088259;28;20077;-74
2023/12/16 10:13:57;;;;;;;21.00;19.60;;;;;;;4.08;100.00;103061.09;5087930;28;20451;-74
2023/12/16 10:16:26;;;;;;;19.48;18.17;;;;;;;3.75;100.00;103054.59;5083355;28;20082;-75
2023/12/16 10:18:55;;;;;;;20.17;18.70;;;;;;;3.46;100.00;103051.28;5084734;28;20055;-74
2023/12/16 10:21:33;;;;;;;19.90;18.58;;;;;;;3.25;100.00;103057.97;5083699;28;20099;-75
2023/12/16 10:24:01;;;;;;;21.33;19.88;;;;;;;3.42;100.00;103063.78;5089158;28;20048;-78
2023/12/16 10:30:42;;;;;;;20.60;19.10;;;;;;;3.67;100.00;103057.72;5005578;28;20060;-74
2023/12/16 10:33:17;;;;;;;19.38;18.17;;;;;;;3.66;100.00;103058.69;5001604;28;20419;-75
2023/12/16 10:35:53;;;;;;;22.55;20.98;;;;;;;4.15;100.00;103057.09;5012837;28;20052;-74
2023/12/16 10:38:20;;;;;;;19.65;18.45;;;;;;;3.87;100.00;103052.88;5066781;28;20044;-75
2023/12/16 10:40:46;;;;;;;19.35;18.15;;;;;;;3.92;100.00;103052.59;5093328;28;20047;-74
2023/12/16 10:43:13;;;;;;;21.42;20.02;;;;;;;3.98;100.00;103050.38;5091578;28;20044;-74
2023/12/16 10:45:40;;;;;;;19.98;18.75;;;;;;;3.87;100.00;103037.97;5088865;28;20040;-73
2023/12/16 10:48:10;;;;;;;20.95;19.55;;;;;;;4.15;100.00;103053.63;5092464;28;20151;-74
2023/12/16 10:50:43;;;;;;;19.98;18.77;;;;;;;4.39;100.00;103049.28;5092664;28;20109;-74
2023/12/16 10:53:16;;;;;;;20.35;19.05;;;;;;;4.17;100.00;103052.56;5084745;28;20113;-74
2023/12/16 10:55:45;;;;;;;;;;;;;;;4.45;100.00;103051.47;5088319;28;20044;-74
2023/12/16 10:58:25;;;;;;;21.10;19.70;;;;;;;4.55;100.00;103052.50;5082697;28;19919;-74
2023/12/16 11:00:53;;;;;;;23.27;21.88;;;;;;;4.57;100.00;103060.31;5088697;28;20048;-75
2023/12/16 11:03:25;;;;;;;21.90;20.50;;;;;;;4.58;100.00;103067.25;5084389;28;20641;-74
2023/12/16 11:06:00;;;;;;;20.23;18.92;;;;;;;4.68;100.00;103059.53;5090983;28;20043;-74
2023/12/16 11:08:32;;;;;;;23.25;21.65;;;;;;;4.61;100.00;103066.19;5078088;28;20052;-74
2023/12/16 11:10:59;;;;;;;24.65;23.15;;;;;;;4.53;100.00;103062.28;5091484;28;20051;-74
2023/12/16 11:13:26;;;;;;;22.00;20.63;;;;;;;4.43;100.00;103055.16;5086365;28;20044;-77
2023/12/16 11:16:02;;;;;;;22.23;20.83;;;;;;;4.22;100.00;103060.97;5077281;28;20056;-78
2023/12/16 11:18:43;;;;;;;20.08;18.85;;;;;;;4.25;100.00;103052.03;5084040;28;20431;-73
2023/12/16 11:21:38;;;;;;;22.30;20.92;;;;;;;4.16;100.00;103068.47;5085661;28;20044;-74
2023/12/16 11:24:18;;;;;;;21.23;19.92;;;;;;;4.45;100.00;103071.66;5085892;28;20062;-74
2023/12/16 12:35:23;;;;;;;19.10;17.90;;;;;;;4.08;100.00;103080.34;5099612;27;20400;-80
2023/12/16 12:38:03;;;;;;;19.35;18.13;;;;;;;4.25;100.00;103089.72;5086890;28;20052;-79
2023/12/16 12:40:30;;;;;;;19.10;17.90;;;;;;;4.01;100.00;103091.41;5096212;28;20056;-80
2023/12/16 12:53:45;;;;;;;;;;;;;;;4.71;100.00;103075.94;5039337;28;20092;-76